createdAt,value
2018-11-13T00:00:20.491Z,3.67
2018-11-13T00:02:49.364Z,4.73
2018-11-13T00:05:17.569Z,4.00
2018-11-13T00:07:45.765Z,4.80
2018-11-13T00:10:14.240Z,3.93
2018-11-13T00:12:42.612Z,4.30
2018-11-13T00:15:11.168Z,3.83
2018-11-13T00:17:39.388Z,4.33
2018-11-13T00:20:09.567Z,3.70
2018-11-13T00:22:37.772Z,4.10
2018-11-13T00:25:07.139Z,7.77
2018-11-13T00:27:35.435Z,5.93
2018-11-13T00:30:03.592Z,7.27
2018-11-13T00:32:31.783Z,8.27
2018-11-13T00:34:59.987Z,4.70
2018-11-13T00:37:28.183Z,5.33
2018-11-13T00:39:56.632Z,6.00
2018-11-13T00:42:24.836Z,6.13
2018-11-13T00:44:53.058Z,4.47
2018-11-13T00:47:21.255Z,5.07
2018-11-13T00:49:49.484Z,4.67
2018-11-13T00:52:17.754Z,4.80
2018-11-13T00:54:45.980Z,5.67
2018-11-13T00:57:14.132Z,5.40
2018-11-13T00:59:42.335Z,4.33
2018-11-13T01:02:10.520Z,4.90
2018-11-13T01:04:38.733Z,3.63
2018-11-13T01:07:07.116Z,5.23
2018-11-13T01:09:35.292Z,3.33
2018-11-13T01:12:03.488Z,3.47
2018-11-13T01:14:31.677Z,3.40
2018-11-13T01:16:59.928Z,3.60
2018-11-13T01:19:28.188Z,3.43
2018-11-13T01:21:56.388Z,4.33
2018-11-13T01:24:24.852Z,3.27
2018-11-13T01:26:53.039Z,3.87
2018-11-13T01:29:21.248Z,3.93
2018-11-13T01:31:49.463Z,3.70
2018-11-13T01:34:17.667Z,2.77
2018-11-13T01:36:45.892Z,3.67
2018-11-13T01:39:14.099Z,4.47
2018-11-13T01:41:42.334Z,3.37
2018-11-13T01:44:10.495Z,3.87
2018-11-13T01:46:38.693Z,7.13
2018-11-13T01:49:06.884Z,2.93
2018-11-13T01:51:35.088Z,5.93
2018-11-13T01:54:03.339Z,3.73
2018-11-13T01:56:31.520Z,3.73
2018-11-13T01:58:59.691Z,3.93
2018-11-13T02:01:27.887Z,4.73
2018-11-13T02:03:56.344Z,4.13
2018-11-13T02:06:24.544Z,3.83
2018-11-13T02:08:52.727Z,5.73
2018-11-13T02:11:20.983Z,4.53
2018-11-13T02:13:49.159Z,3.73
2018-11-13T02:16:17.385Z,6.60
2018-11-13T02:18:45.571Z,5.47
2018-11-13T02:21:13.757Z,7.13
2018-11-13T02:23:42.823Z,6.80
2018-11-13T02:26:11.023Z,9.17
2018-11-13T02:28:39.244Z,6.83
2018-11-13T02:31:07.440Z,7.63
2018-11-13T02:33:35.613Z,8.47
2018-11-13T02:36:03.796Z,6.60
2018-11-13T02:38:32.340Z,7.67
2018-11-13T02:41:00.535Z,7.33
2018-11-13T02:43:28.737Z,5.60
2018-11-13T02:45:56.935Z,5.57
2018-11-13T02:48:25.144Z,6.70
2018-11-13T02:50:53.380Z,6.90
2018-11-13T02:53:21.555Z,4.97
2018-11-13T02:55:49.732Z,4.77
2018-11-13T02:58:17.941Z,3.30
2018-11-13T03:00:46.131Z,3.70
2018-11-13T03:03:14.332Z,3.33
2018-11-13T03:05:42.502Z,2.60
2018-11-13T03:08:10.703Z,1.60
2018-11-13T03:10:38.986Z,2.07
2018-11-13T03:13:07.180Z,2.00
2018-11-13T03:15:36.031Z,1.63
2018-11-13T03:18:04.214Z,1.87
2018-11-13T03:20:32.418Z,1.53
2018-11-13T03:23:00.605Z,1.50
2018-11-13T03:25:32.048Z,0.87
2018-11-13T03:28:01.123Z,1.53
2018-11-13T03:30:29.311Z,1.33
2018-11-13T03:32:57.503Z,0.83
2018-11-13T03:35:26.019Z,1.57
2018-11-13T03:37:54.335Z,0.70
2018-11-13T03:40:22.496Z,0.70
2018-11-13T03:42:50.973Z,1.10
2018-11-13T03:45:19.460Z,1.43
2018-11-13T03:47:47.695Z,1.13
2018-11-13T03:50:19.921Z,0.50
2018-11-13T03:52:48.191Z,1.10
2018-11-13T03:55:16.921Z,1.97
2018-11-13T03:57:45.703Z,0.70
2018-11-13T04:00:15.231Z,0.90
2018-11-13T04:02:43.450Z,0.57
2018-11-13T04:05:13.958Z,1.23
2018-11-13T04:07:43.461Z,1.13
2018-11-13T04:10:14.619Z,0.50
2018-11-13T04:12:42.999Z,0.70
2018-11-13T04:15:13.051Z,0.47
2018-11-13T04:17:41.327Z,0.50
2018-11-13T04:20:11.459Z,1.13
2018-11-13T04:22:39.762Z,3.00
2018-11-13T04:25:08.404Z,1.67
2018-11-13T04:27:36.739Z,0.73
2018-11-13T04:30:05.342Z,0.80
2018-11-13T04:32:33.551Z,0.63
2018-11-13T04:35:01.754Z,2.03
2018-11-13T04:37:30.273Z,0.83
2018-11-13T04:39:58.439Z,0.77
2018-11-13T04:42:26.670Z,0.70
2018-11-13T04:44:54.980Z,1.27
2018-11-13T04:47:23.196Z,0.73
2018-11-13T04:49:51.364Z,0.50
2018-11-13T04:52:19.595Z,1.00
2018-11-13T04:54:47.795Z,0.33
2018-11-13T04:57:15.975Z,0.40
2018-11-13T04:59:44.166Z,0.93
2018-11-13T05:02:12.432Z,0.40
2018-11-13T05:04:40.622Z,0.23
2018-11-13T05:07:08.803Z,1.33
2018-11-13T05:09:37.039Z,0.30
2018-11-13T05:12:05.367Z,0.60
2018-11-13T05:14:33.564Z,0.30
2018-11-13T05:17:01.743Z,0.53
2018-11-13T05:19:30.023Z,1.20
2018-11-13T05:21:58.227Z,0.50
2018-11-13T05:24:26.407Z,0.37
2018-11-13T05:26:54.593Z,0.53
2018-11-13T05:29:22.808Z,0.70
2018-11-13T05:31:50.982Z,0.40
2018-11-13T05:34:19.479Z,0.40
2018-11-13T05:36:47.678Z,0.53
2018-11-13T05:39:15.939Z,0.40
2018-11-13T05:41:44.255Z,1.03
2018-11-13T05:44:12.405Z,1.00
2018-11-13T05:46:40.610Z,0.20
2018-11-13T05:49:08.793Z,0.30
2018-11-13T05:51:37.003Z,0.20
2018-11-13T05:54:05.392Z,0.60
2018-11-13T05:56:33.661Z,0.30
2018-11-13T05:59:01.863Z,0.63
2018-11-13T06:01:30.136Z,0.87
2018-11-13T06:03:58.599Z,0.20
2018-11-13T06:06:26.810Z,0.10
2018-11-13T06:08:54.999Z,0.27
2018-11-13T06:11:23.442Z,0.70
2018-11-13T06:13:51.640Z,0.27
2018-11-13T06:16:19.803Z,0.67
2018-11-13T06:18:47.988Z,0.40
2018-11-13T06:21:16.163Z,0.37
2018-11-13T06:23:44.358Z,1.17
2018-11-13T06:26:12.555Z,0.30
2018-11-13T06:28:40.735Z,1.63
2018-11-13T06:31:09.157Z,2.20
2018-11-13T06:33:37.347Z,6.53
2018-11-13T06:36:05.694Z,1.67
2018-11-13T06:50:24.447Z,0.40
2018-11-13T06:52:52.660Z,0.40
2018-11-13T06:55:24.628Z,0.30
2018-11-13T06:57:52.871Z,0.30
2018-11-13T07:00:21.087Z,0.53
2018-11-13T07:02:49.312Z,0.43
2018-11-13T07:05:18.256Z,0.30
2018-11-13T07:07:46.770Z,0.60
2018-11-13T07:10:17.200Z,0.60
2018-11-13T07:12:46.739Z,0.53
2018-11-13T07:15:16.564Z,0.50
2018-11-13T07:17:46.048Z,0.50
2018-11-13T07:20:14.976Z,1.37
2018-11-13T07:22:43.440Z,0.40
2018-11-13T07:25:11.987Z,0.50
2018-11-13T07:27:40.781Z,0.80
2018-11-13T07:30:10.572Z,1.00
2018-11-13T07:32:39.372Z,0.90
2018-11-13T07:35:08.475Z,0.97
2018-11-13T07:37:36.728Z,1.00
2018-11-13T07:40:05.292Z,0.50
2018-11-13T07:42:33.491Z,1.10
2018-11-13T07:45:01.996Z,2.00
2018-11-13T07:47:30.407Z,0.77
2018-11-13T07:49:58.466Z,2.63
2018-11-13T07:52:26.676Z,1.10
2018-11-13T07:54:54.880Z,1.50
2018-11-13T07:57:23.083Z,1.00
2018-11-13T07:59:51.280Z,3.20
2018-11-13T08:02:19.484Z,1.07
2018-11-13T08:04:47.707Z,2.97
2018-11-13T08:07:15.943Z,1.93
2018-11-13T08:09:44.331Z,3.03
2018-11-13T08:12:12.521Z,1.43
2018-11-13T08:14:40.720Z,3.83
2018-11-13T08:17:08.916Z,2.17
2018-11-13T08:19:37.133Z,2.23
2018-11-13T08:22:05.612Z,4.93
2018-11-13T08:24:33.748Z,2.47
2018-11-13T08:27:01.985Z,6.30
2018-11-13T08:29:30.179Z,2.87
2018-11-13T08:31:58.398Z,4.13
2018-11-13T08:34:26.636Z,2.20
2018-11-13T08:36:54.842Z,1.20
2018-11-13T08:39:23.175Z,1.80
2018-11-13T08:41:51.395Z,1.37
2018-11-13T08:44:19.670Z,1.57
2018-11-13T08:46:47.806Z,1.03
2018-11-13T08:49:15.992Z,0.37
2018-11-13T08:51:44.211Z,0.50
2018-11-13T08:54:12.405Z,2.00
2018-11-13T08:56:40.608Z,1.03
2018-11-13T08:59:08.860Z,0.50
2018-11-13T09:01:36.998Z,1.00
2018-11-13T09:04:05.393Z,2.47
2018-11-13T09:06:33.620Z,1.80
2018-11-13T09:09:01.844Z,0.20
2018-11-13T09:11:30.105Z,0.40
2018-11-13T09:13:58.305Z,0.37
2018-11-13T09:16:26.538Z,2.47
2018-11-13T09:18:54.827Z,1.10
2018-11-13T09:21:22.952Z,0.40
2018-11-13T09:23:51.148Z,1.80
2018-11-13T09:26:19.402Z,1.00
2018-11-13T09:28:47.643Z,0.83
2018-11-13T09:31:15.902Z,0.53
2018-11-13T09:33:44.136Z,1.00
2018-11-13T09:36:12.364Z,0.47
2018-11-13T09:38:40.824Z,0.47
2018-11-13T09:41:09.018Z,0.87
2018-11-13T09:43:37.203Z,0.47
2018-11-13T09:46:05.765Z,1.20
2018-11-13T09:48:33.875Z,0.37
2018-11-13T09:51:02.372Z,2.77
2018-11-13T09:53:30.690Z,4.77
2018-11-13T09:55:58.776Z,10.43
2018-11-13T09:58:26.991Z,1.80
2018-11-13T10:00:55.461Z,2.63
2018-11-13T10:03:24.290Z,0.83
2018-11-13T10:05:52.014Z,0.37
2018-11-13T10:08:20.176Z,0.60
2018-11-13T10:10:48.465Z,1.73
2018-11-13T10:13:16.853Z,1.80
2018-11-13T10:15:45.053Z,2.33
2018-11-13T10:18:13.393Z,0.40
2018-11-13T10:20:41.452Z,1.43
2018-11-13T10:23:09.676Z,0.60
2018-11-13T10:25:37.899Z,0.43
2018-11-13T10:28:06.146Z,0.97
2018-11-13T10:30:34.332Z,0.40
2018-11-13T10:33:02.553Z,0.80
2018-11-13T10:35:30.848Z,3.20
2018-11-13T10:37:59.057Z,1.73
2018-11-13T10:40:27.312Z,0.83
2018-11-13T10:42:55.719Z,1.87
2018-11-13T10:45:25.227Z,0.90
2018-11-13T10:47:53.473Z,0.40
2018-11-13T10:50:23.167Z,2.50
2018-11-13T10:52:51.317Z,2.17
2018-11-13T10:55:19.605Z,1.33
2018-11-13T10:57:47.816Z,1.30
2018-11-13T11:00:21.943Z,0.47
2018-11-13T11:02:55.706Z,2.10
2018-11-13T11:05:25.932Z,2.40
2018-11-13T11:07:54.269Z,0.73
2018-11-13T11:10:22.472Z,3.00
2018-11-13T11:12:50.729Z,3.10
2018-11-13T11:15:18.882Z,1.50
2018-11-13T11:17:47.113Z,0.60
2018-11-13T11:20:15.301Z,1.70
2018-11-13T11:22:43.569Z,1.03
2018-11-13T11:25:12.687Z,0.63
2018-11-13T11:27:40.801Z,1.57
2018-11-13T11:30:12.310Z,1.00
2018-11-13T11:32:40.511Z,0.80
2018-11-13T11:35:08.728Z,0.33
2018-11-13T11:37:37.844Z,0.50
2018-11-13T11:40:06.145Z,0.30
2018-11-13T11:42:34.334Z,0.83
2018-11-13T11:45:02.560Z,0.37
2018-11-13T11:47:31.040Z,0.30
2018-11-13T11:49:59.294Z,0.47
2018-11-13T11:52:27.481Z,0.57
2018-11-13T11:54:55.712Z,0.63
2018-11-13T11:57:23.913Z,0.60
2018-11-13T11:59:52.107Z,1.80
2018-11-13T12:02:20.462Z,1.80
2018-11-13T12:04:48.625Z,2.30
2018-11-13T12:07:16.816Z,1.10
2018-11-13T12:09:45.005Z,0.93
2018-11-13T12:12:13.268Z,1.30
2018-11-13T12:14:41.408Z,1.23
2018-11-13T12:17:09.645Z,0.40
2018-11-13T12:19:37.870Z,1.30
2018-11-13T12:22:06.107Z,0.63
2018-11-13T12:24:34.328Z,0.50
2018-11-13T12:27:02.620Z,5.87
2018-11-13T12:29:30.854Z,0.30
2018-11-13T12:31:59.073Z,0.70
2018-11-13T12:34:27.312Z,1.87
2018-11-13T12:36:55.487Z,1.13
2018-11-13T12:39:23.676Z,0.80
2018-11-13T12:41:51.884Z,0.20
2018-11-13T12:44:20.412Z,0.10
2018-11-13T12:46:48.611Z,0.20
2018-11-13T12:49:16.854Z,0.30
2018-11-13T12:51:50.700Z,0.10
2018-11-13T12:54:18.916Z,0.63
2018-11-13T12:56:47.156Z,0.43
2018-11-13T12:59:15.366Z,0.40
2018-11-13T13:01:43.604Z,0.33
2018-11-13T13:04:11.842Z,0.63
2018-11-13T13:06:40.048Z,0.97
2018-11-13T13:09:09.325Z,0.20
2018-11-13T13:11:37.524Z,0.23
2018-11-13T13:14:11.220Z,0.73
2018-11-13T13:16:39.423Z,0.10
2018-11-13T13:19:07.640Z,0.20
2018-11-13T13:21:35.976Z,0.23
2018-11-13T13:24:04.167Z,0.20
2018-11-13T13:26:32.353Z,0.20
2018-11-13T13:29:00.585Z,2.67
2018-11-13T13:31:28.826Z,0.50
2018-11-13T13:33:57.072Z,2.53
2018-11-13T13:36:25.280Z,0.30
2018-11-13T13:38:53.558Z,0.60
2018-11-13T13:41:21.732Z,0.80
2018-11-13T13:43:49.931Z,0.60
2018-11-13T13:46:18.142Z,0.63
2018-11-13T13:48:46.420Z,2.67
2018-11-13T13:51:14.629Z,0.40
2018-11-13T13:53:42.901Z,0.57
2018-11-13T13:56:11.112Z,1.03
2018-11-13T13:58:39.303Z,1.67
2018-11-13T14:01:07.529Z,0.50
2018-11-13T14:03:35.740Z,2.47
2018-11-13T14:06:03.985Z,0.43
2018-11-13T14:08:32.183Z,2.30
2018-11-13T14:11:00.358Z,0.30
2018-11-13T14:13:28.568Z,1.37
2018-11-13T14:15:56.779Z,0.30
2018-11-13T14:18:24.997Z,0.93
2018-11-13T14:20:53.249Z,0.40
2018-11-13T14:23:21.417Z,1.10
2018-11-13T14:25:49.657Z,0.80
2018-11-13T14:28:17.864Z,0.77
2018-11-13T14:30:46.059Z,1.10
2018-11-13T14:33:14.318Z,1.17
2018-11-13T14:35:42.612Z,1.70
2018-11-13T14:38:10.783Z,1.83
2018-11-13T14:40:46.464Z,1.90
2018-11-13T14:43:14.911Z,2.20
2018-11-13T14:45:43.498Z,2.77
2018-11-13T14:48:12.032Z,1.13
2018-11-13T14:50:41.116Z,3.60
2018-11-13T14:53:09.970Z,1.37
2018-11-13T14:55:39.629Z,4.23
2018-11-13T14:58:09.404Z,3.63
2018-11-13T15:00:38.248Z,1.37
2018-11-13T15:03:07.524Z,2.93
2018-11-13T15:05:36.196Z,2.57
2018-11-13T15:08:05.618Z,1.17
2018-11-13T15:10:35.979Z,1.73
2018-11-13T15:13:04.415Z,0.40
2018-11-13T15:15:32.758Z,0.63
2018-11-13T15:18:01.248Z,5.83
2018-11-13T15:20:29.435Z,3.97
2018-11-13T15:22:57.830Z,1.90
2018-11-13T15:25:26.213Z,4.03
2018-11-13T15:27:54.400Z,5.10
2018-11-13T15:30:24.487Z,2.77
2018-11-13T15:32:54.299Z,3.27
2018-11-13T15:35:22.508Z,3.10
2018-11-13T15:37:50.724Z,3.07
2018-11-13T15:40:21.492Z,1.10
2018-11-13T15:42:49.695Z,4.90
2018-11-13T15:45:18.650Z,2.23
2018-11-13T15:47:47.624Z,1.30
2018-11-13T15:50:17.928Z,1.43
2018-11-13T15:52:46.140Z,2.87
2018-11-13T15:55:14.848Z,3.90
2018-11-13T15:57:43.632Z,1.07
2018-11-13T16:00:16.987Z,3.83
2018-11-13T16:02:45.468Z,2.07
2018-11-13T16:05:24.625Z,1.90
2018-11-13T16:07:55.044Z,2.47
2018-11-13T16:10:23.318Z,2.43
2018-11-13T16:12:51.569Z,2.90
2018-11-13T16:15:20.924Z,4.33
2018-11-13T16:17:49.715Z,2.57
2018-11-13T16:20:18.228Z,1.87
2018-11-13T16:22:46.527Z,2.07
2018-11-13T16:25:14.720Z,0.77
2018-11-13T16:27:42.907Z,1.77
2018-11-13T16:30:13.240Z,8.13
2018-11-13T16:32:42.108Z,7.50
2018-11-13T16:35:11.637Z,7.80
2018-11-13T16:37:41.248Z,14.13
2018-11-13T16:40:11.909Z,6.93
2018-11-13T16:42:40.996Z,9.30
2018-11-13T16:45:10.090Z,6.67
2018-11-13T16:47:38.501Z,4.50
2018-11-13T16:50:19.503Z,5.53
2018-11-13T16:52:47.700Z,4.27
2018-11-13T16:55:21.220Z,6.03
2018-11-13T16:57:51.132Z,7.17
2018-11-13T17:00:19.824Z,7.27
2018-11-13T17:02:48.217Z,6.07
2018-11-13T17:05:17.356Z,6.30
2018-11-13T17:07:45.524Z,10.40
2018-11-13T17:10:15.340Z,9.50
2018-11-13T17:12:43.807Z,7.50
2018-11-13T17:15:15.079Z,11.03
2018-11-13T17:17:43.851Z,11.57
2018-11-13T17:20:12.849Z,18.53
2018-11-13T17:22:41.944Z,23.03
2018-11-13T17:25:11.399Z,24.87
2018-11-13T17:27:41.904Z,15.00
2018-11-13T17:30:15.429Z,13.90
2018-11-13T17:32:44.372Z,14.27
2018-11-13T17:35:13.845Z,10.07
2018-11-13T17:37:42.392Z,8.17
2018-11-13T17:40:12.940Z,10.10
2018-11-13T17:42:41.266Z,9.83
2018-11-13T17:45:13.372Z,11.17
2018-11-13T17:47:41.604Z,10.50
2018-11-13T17:50:12.808Z,11.53
2018-11-13T17:52:41.324Z,14.03
2018-11-13T17:55:10.269Z,12.10
2018-11-13T17:57:38.476Z,11.13
2018-11-13T18:00:11.568Z,14.03
2018-11-13T18:02:39.836Z,14.77
2018-11-13T18:05:08.648Z,15.73
2018-11-13T18:07:36.936Z,14.13
2018-11-13T18:10:05.528Z,11.03
2018-11-13T18:12:33.744Z,14.17
2018-11-13T18:15:01.971Z,12.53
2018-11-13T18:17:30.267Z,12.67
2018-11-13T18:19:58.452Z,14.10
2018-11-13T18:22:26.648Z,12.60
2018-11-13T18:24:54.873Z,14.80
2018-11-13T18:27:23.074Z,13.33
2018-11-13T18:29:51.952Z,13.60
2018-11-13T18:32:20.432Z,14.03
2018-11-13T18:34:48.811Z,12.70
2018-11-13T18:37:17.094Z,16.67
2018-11-13T18:39:45.533Z,10.33
2018-11-13T18:42:14.173Z,11.80
2018-11-13T18:44:42.527Z,11.27
2018-11-13T18:47:10.712Z,11.10
2018-11-13T18:49:39.056Z,9.97
2018-11-13T18:52:07.758Z,7.87
2018-11-13T18:54:36.114Z,9.70
2018-11-13T18:57:04.769Z,9.10
2018-11-13T18:59:33.517Z,9.17
2018-11-13T19:02:01.288Z,8.00
2018-11-13T19:04:30.086Z,7.20
2018-11-13T19:06:59.892Z,6.93
2018-11-13T19:09:30.706Z,5.93
2018-11-13T19:12:01.055Z,5.20
2018-11-13T19:14:31.805Z,5.77
2018-11-13T19:17:03.088Z,5.30
2018-11-13T19:19:34.286Z,5.13
2018-11-13T19:22:05.640Z,7.37
2018-11-13T19:24:36.579Z,6.17
2018-11-13T19:27:08.088Z,5.30
2018-11-13T19:29:39.295Z,5.17
2018-11-13T19:32:09.842Z,4.93
2018-11-13T19:34:40.625Z,6.17
2018-11-13T19:37:11.914Z,8.50
2018-11-13T19:39:43.278Z,10.83
2018-11-13T19:42:14.148Z,7.23
2018-11-13T19:44:45.436Z,6.10
2018-11-13T19:47:16.423Z,8.67
2018-11-13T19:49:48.447Z,8.97
2018-11-13T19:52:19.962Z,8.77
2018-11-13T19:54:51.197Z,7.90
2018-11-13T19:57:22.338Z,9.20
2018-11-13T19:59:53.281Z,9.67
2018-11-13T20:02:24.681Z,12.93
2018-11-13T20:04:55.949Z,10.03
2018-11-13T20:07:27.333Z,8.67
2018-11-13T20:09:58.332Z,10.10
2018-11-13T20:12:29.535Z,13.00
2018-11-13T20:15:00.689Z,15.43
2018-11-13T20:17:32.010Z,10.67
2018-11-13T20:20:02.973Z,10.90
2018-11-13T20:22:34.295Z,11.07
2018-11-13T20:25:05.669Z,9.87
2018-11-13T20:27:37.169Z,10.10
2018-11-13T20:30:09.449Z,9.30
2018-11-13T20:32:41.258Z,10.10
2018-11-13T20:35:13.341Z,10.70
2018-11-13T20:37:46.205Z,9.63
2018-11-13T20:40:23.975Z,11.47
2018-11-13T20:42:55.996Z,9.53
2018-11-13T20:45:26.796Z,10.77
2018-11-13T20:47:58.325Z,9.33
2018-11-13T20:50:30.809Z,9.30
2018-11-13T20:53:02.164Z,10.17
2018-11-13T20:55:33.281Z,9.73
2018-11-13T20:58:04.709Z,10.10
2018-11-13T21:00:37.634Z,8.80
2018-11-13T21:03:08.852Z,9.73
2018-11-13T21:05:39.948Z,11.13
2018-11-13T21:08:11.219Z,8.17
2018-11-13T21:10:42.346Z,10.67
2018-11-13T21:13:13.748Z,10.87
2018-11-13T21:15:45.173Z,11.03
2018-11-13T21:18:15.678Z,13.20
2018-11-13T21:20:46.648Z,9.67
2018-11-13T21:23:17.468Z,10.87
2018-11-13T21:25:47.052Z,11.63
2018-11-13T21:28:15.807Z,8.73
2018-11-13T21:30:44.796Z,12.17
2018-11-13T21:33:13.015Z,10.90
2018-11-13T21:35:41.336Z,11.33
2018-11-13T21:38:09.617Z,11.40
2018-11-13T21:40:37.838Z,9.83
2018-11-13T21:43:06.117Z,8.17
2018-11-13T21:45:34.319Z,12.40
2018-11-13T21:48:02.823Z,9.73
2018-11-13T21:50:31.023Z,8.50
2018-11-13T21:52:59.216Z,10.83
2018-11-13T21:55:28.494Z,8.37
2018-11-13T21:57:56.695Z,10.47
2018-11-13T22:00:27.903Z,8.43
2018-11-13T22:02:59.346Z,10.57
2018-11-13T22:05:28.613Z,11.07
2018-11-13T22:07:56.830Z,10.03
2018-11-13T22:10:25.010Z,9.67
2018-11-13T22:12:53.223Z,9.23
2018-11-13T22:15:22.850Z,7.77
2018-11-13T22:17:50.911Z,10.20
2018-11-13T22:20:19.843Z,9.03
2018-11-13T22:22:48.976Z,9.43
2018-11-13T22:25:19.768Z,9.07
2018-11-13T22:27:49.042Z,8.13
2018-11-13T22:30:32.156Z,9.40
2018-11-13T22:33:00.368Z,9.87
2018-11-13T22:35:28.602Z,9.60
2018-11-13T22:37:56.854Z,9.10
2018-11-13T22:40:26.524Z,9.97
2018-11-13T22:42:54.785Z,8.83
2018-11-13T22:45:25.259Z,9.67
2018-11-13T22:47:53.746Z,6.77
2018-11-13T22:50:24.395Z,9.70
2018-11-13T22:52:53.180Z,9.33
2018-11-13T22:55:21.572Z,8.30
2018-11-13T22:57:50.932Z,8.83
2018-11-13T23:00:20.328Z,8.23
2018-11-13T23:02:50.297Z,8.67
2018-11-13T23:05:18.339Z,8.67
2018-11-13T23:07:46.556Z,11.80
2018-11-13T23:10:15.457Z,9.67
2018-11-13T23:12:44.106Z,8.63
2018-11-13T23:15:13.831Z,9.50
2018-11-13T23:17:42.862Z,11.03
2018-11-13T23:20:12.656Z,8.87
2018-11-13T23:22:40.851Z,9.90
2018-11-13T23:25:10.941Z,9.90
2018-11-13T23:27:39.140Z,9.23
2018-11-13T23:30:10.781Z,11.30
2018-11-13T23:32:39.014Z,10.17
2018-11-13T23:35:07.928Z,9.30
2018-11-13T23:37:36.208Z,11.47
2018-11-13T23:40:04.886Z,8.80
2018-11-13T23:42:33.367Z,11.33
2018-11-13T23:45:01.677Z,10.70
2018-11-13T23:47:29.880Z,9.73
2018-11-13T23:49:58.421Z,9.23
2018-11-13T23:52:26.292Z,10.80
2018-11-13T23:54:54.488Z,12.07
2018-11-13T23:57:22.702Z,12.20
2018-11-13T23:59:50.912Z,12.37
